createdAt,value
2018-09-06T00:01:50.944Z,21.20
2018-09-06T00:04:20.050Z,22.90
2018-09-06T00:06:48.191Z,21.33
2018-09-06T00:09:16.057Z,21.13
2018-09-06T00:11:43.933Z,24.00
2018-09-06T00:14:11.740Z,22.40
2018-09-06T00:16:40.249Z,18.23
2018-09-06T00:19:09.296Z,22.83
2018-09-06T00:21:37.158Z,23.07
2018-09-06T00:24:04.971Z,23.53
2018-09-06T00:26:32.969Z,19.60
2018-09-06T00:29:00.808Z,21.70
2018-09-06T00:31:28.508Z,22.43
2018-09-06T00:33:56.253Z,21.90
2018-09-06T00:36:24.172Z,25.53
2018-09-06T00:38:51.863Z,24.10
2018-09-06T00:41:20.066Z,17.20
2018-09-06T00:43:59.779Z,27.30
2018-09-06T00:46:27.935Z,23.90
2018-09-06T00:49:12.212Z,20.70
2018-09-06T00:51:41.653Z,20.77
2018-09-06T00:54:09.404Z,22.70
2018-09-06T00:56:38.035Z,24.17
2018-09-06T00:59:06.417Z,26.17
2018-09-06T01:01:34.242Z,21.30
2018-09-06T01:04:04.893Z,22.07
2018-09-06T01:06:32.988Z,20.47
2018-09-06T01:09:01.902Z,23.80
2018-09-06T01:11:29.721Z,22.27
2018-09-06T01:13:57.492Z,21.47
2018-09-06T01:16:25.168Z,21.10
2018-09-06T01:18:58.396Z,18.53
2018-09-06T01:21:26.171Z,23.10
2018-09-06T01:23:53.994Z,18.63
2018-09-06T01:26:22.775Z,20.43
2018-09-06T01:28:50.681Z,23.60
2018-09-06T01:31:22.123Z,21.73
2018-09-06T01:33:49.950Z,20.70
2018-09-06T01:36:23.318Z,17.50
2018-09-06T01:38:51.287Z,19.40
2018-09-06T01:41:19.061Z,17.67
2018-09-06T01:43:46.714Z,22.10
2018-09-06T01:46:14.586Z,22.40
2018-09-06T01:48:42.594Z,18.17
2018-09-06T01:51:12.167Z,20.80
2018-09-06T01:53:39.811Z,21.10
2018-09-06T01:56:07.600Z,23.37
2018-09-06T01:58:35.185Z,20.57
2018-09-06T02:01:03.333Z,22.00
2018-09-06T02:03:31.361Z,23.03
2018-09-06T02:05:59.401Z,24.43
2018-09-06T02:08:27.342Z,20.57
2018-09-06T02:10:55.133Z,23.63
2018-09-06T02:13:22.854Z,21.60
2018-09-06T02:15:50.588Z,19.07
2018-09-06T02:18:18.463Z,18.53
2018-09-06T02:20:46.378Z,19.00
2018-09-06T02:23:14.221Z,22.73
2018-09-06T02:25:42.150Z,26.83
2018-09-06T02:28:10.233Z,22.10
2018-09-06T02:30:38.263Z,25.57
2018-09-06T02:33:05.980Z,20.53
2018-09-06T02:35:33.845Z,20.33
2018-09-06T02:38:01.480Z,18.57
2018-09-06T02:40:34.916Z,23.00
2018-09-06T02:45:47.332Z,24.60
2018-09-06T02:48:15.750Z,21.00
2018-09-06T02:50:49.140Z,33.10
2018-09-06T02:53:16.944Z,19.57
2018-09-06T02:55:45.671Z,20.37
2018-09-06T02:58:13.520Z,22.80
2018-09-06T03:00:41.471Z,22.20
2018-09-06T03:03:09.127Z,29.30
2018-09-06T03:05:36.849Z,19.77
2018-09-06T03:08:04.662Z,20.97
2018-09-06T03:10:38.780Z,28.50
2018-09-06T03:13:06.943Z,24.73
2018-09-06T03:15:34.631Z,28.13
2018-09-06T03:18:02.858Z,24.17
2018-09-06T03:20:30.599Z,26.63
2018-09-06T03:22:58.350Z,20.77
2018-09-06T03:25:26.210Z,19.07
2018-09-06T03:27:53.868Z,26.23
2018-09-06T03:30:21.715Z,23.53
2018-09-06T03:32:49.507Z,23.63
2018-09-06T03:35:17.733Z,22.57
2018-09-06T03:37:45.570Z,26.73
2018-09-06T03:40:13.315Z,24.13
2018-09-06T03:42:41.238Z,27.80
2018-09-06T03:45:09.952Z,29.90
2018-09-06T03:47:37.635Z,22.47
2018-09-06T03:50:05.313Z,22.70
2018-09-06T03:52:33.078Z,26.13
2018-09-06T03:55:00.938Z,21.67
2018-09-06T03:57:28.713Z,23.77
2018-09-06T03:59:56.719Z,21.03
2018-09-06T04:02:24.339Z,24.60
2018-09-06T04:04:52.105Z,22.50
2018-09-06T04:07:19.783Z,24.40
2018-09-06T04:09:48.390Z,24.17
2018-09-06T04:12:16.935Z,29.43
2018-09-06T04:14:45.195Z,28.83
2018-09-06T04:17:13.415Z,24.30
2018-09-06T04:19:41.214Z,27.53
2018-09-06T04:22:08.898Z,27.53
2018-09-06T04:24:36.706Z,25.50
2018-09-06T04:27:04.434Z,22.47
2018-09-06T04:29:32.295Z,22.20
2018-09-06T04:32:00.139Z,26.23
2018-09-06T04:34:27.851Z,25.43
2018-09-06T04:36:55.542Z,26.70
2018-09-06T04:39:23.310Z,23.70
2018-09-06T04:41:51.027Z,23.60
2018-09-06T04:44:18.799Z,24.40
2018-09-06T04:46:49.800Z,36.10
2018-09-06T04:49:17.784Z,29.97
2018-09-06T04:51:53.052Z,24.90
2018-09-06T04:54:22.098Z,26.77
2018-09-06T04:56:51.497Z,32.07
2018-09-06T04:59:19.658Z,24.90
2018-09-06T05:01:48.872Z,26.27
2018-09-06T05:04:16.862Z,25.87
2018-09-06T05:06:44.704Z,23.40
2018-09-06T05:09:12.907Z,30.13
2018-09-06T05:11:43.403Z,26.43
2018-09-06T05:14:11.418Z,24.40
2018-09-06T05:16:40.151Z,27.30
2018-09-06T05:19:10.095Z,29.30
2018-09-06T05:21:55.255Z,24.90
2018-09-06T05:30:29.664Z,26.20
2018-09-06T05:32:58.531Z,30.63
2018-09-06T05:35:27.342Z,25.50
2018-09-06T05:37:56.401Z,28.37
2018-09-06T05:40:27.890Z,25.00
2018-09-06T05:43:00.395Z,28.10
2018-09-06T05:48:23.088Z,31.00
2018-09-06T05:50:51.904Z,46.63
2018-09-06T05:53:24.467Z,33.70
2018-09-06T05:55:53.297Z,25.67
2018-09-06T05:58:21.122Z,33.07
2018-09-06T06:00:49.519Z,26.93
2018-09-06T06:03:17.596Z,26.00
2018-09-06T06:05:46.177Z,34.00
2018-09-06T06:08:25.515Z,28.90
2018-09-06T06:10:53.291Z,29.37
2018-09-06T06:13:21.166Z,28.80
2018-09-06T06:15:49.406Z,33.23
2018-09-06T06:18:17.328Z,26.80
2018-09-06T06:20:46.039Z,28.57
2018-09-06T06:23:23.928Z,27.27
2018-09-06T06:25:52.079Z,35.57
2018-09-06T06:28:21.060Z,35.43
2018-09-06T06:30:51.714Z,30.50
2018-09-06T06:33:20.596Z,30.70
2018-09-06T06:35:49.429Z,29.30
2018-09-06T06:38:20.842Z,33.27
2018-09-06T06:40:48.824Z,37.13
2018-09-06T06:43:16.922Z,35.37
2018-09-06T06:45:44.797Z,33.50
2018-09-06T06:48:12.606Z,32.83
2018-09-06T06:50:41.718Z,36.80
2018-09-06T06:53:10.380Z,34.50
2018-09-06T06:55:38.159Z,31.93
2018-09-06T06:58:06.018Z,34.03
2018-09-06T07:00:40.220Z,36.60
2018-09-06T07:03:08.873Z,29.97
2018-09-06T07:05:36.687Z,31.43
2018-09-06T07:08:04.815Z,34.13
2018-09-06T07:10:32.644Z,32.33
2018-09-06T07:13:00.361Z,35.90
2018-09-06T07:15:29.642Z,35.13
2018-09-06T07:17:57.348Z,31.60
2018-09-06T07:20:25.251Z,38.07
2018-09-06T07:22:53.031Z,32.90
2018-09-06T07:25:20.767Z,29.90
2018-09-06T07:27:48.424Z,36.03
2018-09-06T07:30:17.081Z,33.37
2018-09-06T07:32:44.848Z,36.50
2018-09-06T07:35:23.785Z,38.17
2018-09-06T07:43:48.090Z,28.47
2018-09-06T07:46:17.522Z,29.70
2018-09-06T07:48:47.332Z,39.07
2018-09-06T07:51:15.083Z,29.83
2018-09-06T08:02:39.890Z,30.70
2018-09-06T08:05:08.003Z,30.90
2018-09-06T08:07:35.765Z,28.50
2018-09-06T08:10:03.730Z,26.87
2018-09-06T08:12:31.515Z,32.80
2018-09-06T08:14:59.136Z,31.40
2018-09-06T08:17:41.383Z,36.03
2018-09-06T08:20:09.224Z,31.70
2018-09-06T08:22:37.829Z,29.30
2018-09-06T08:25:06.419Z,27.27
2018-09-06T08:27:34.315Z,30.13
2018-09-06T08:30:02.031Z,25.73
2018-09-06T08:32:30.335Z,33.77
2018-09-06T08:34:58.453Z,29.90
2018-09-06T08:37:26.153Z,30.47
2018-09-06T08:39:59.436Z,31.07
2018-09-06T08:42:27.033Z,31.17
2018-09-06T08:44:54.734Z,28.27
2018-09-06T08:47:22.379Z,31.40
2018-09-06T08:49:50.903Z,28.40
2018-09-06T08:52:18.810Z,40.23
2018-09-06T08:54:46.540Z,33.53
2018-09-06T08:57:14.703Z,28.17
2018-09-06T08:59:42.480Z,27.50
2018-09-06T09:02:13.233Z,29.70
2018-09-06T09:04:41.106Z,31.00
2018-09-06T09:07:11.047Z,24.50
2018-09-06T09:09:38.879Z,31.90
2018-09-06T09:12:07.362Z,24.63
2018-09-06T09:14:36.244Z,25.90
2018-09-06T09:19:58.338Z,30.33
2018-09-06T09:22:26.180Z,35.30
2018-09-06T09:24:54.623Z,26.53
2018-09-06T09:27:22.354Z,24.80
2018-09-06T09:29:50.536Z,29.97
2018-09-06T09:32:19.451Z,23.07
2018-09-06T09:34:51.253Z,34.13
2018-09-06T09:37:20.519Z,28.83
2018-09-06T09:39:48.291Z,30.77
2018-09-06T09:42:16.761Z,24.43
2018-09-06T09:44:45.082Z,24.77
2018-09-06T09:49:40.432Z,31.10
2018-09-06T09:52:12.095Z,28.33
2018-09-06T09:54:40.330Z,40.73
2018-09-06T09:57:08.177Z,24.53
2018-09-06T09:59:35.869Z,24.33
2018-09-06T10:02:09.219Z,25.83
2018-09-06T10:04:42.718Z,22.27
2018-09-06T10:07:17.040Z,28.33
2018-09-06T10:09:44.910Z,25.77
2018-09-06T10:12:12.588Z,27.93
2018-09-06T10:14:42.513Z,23.53
2018-09-06T10:17:10.473Z,27.13
2018-09-06T10:19:38.112Z,21.80
2018-09-06T10:22:05.901Z,36.20
2018-09-06T10:24:36.664Z,20.53
2018-09-06T10:27:04.607Z,25.60
2018-09-06T10:29:32.438Z,30.73
2018-09-06T10:32:00.873Z,32.70
2018-09-06T10:34:32.853Z,55.07
2018-09-06T10:37:00.524Z,40.40
2018-09-06T10:39:28.349Z,24.63
2018-09-06T10:41:57.179Z,36.00
2018-09-06T10:44:28.234Z,34.10
2018-09-06T10:46:55.953Z,33.07
2018-09-06T10:49:23.966Z,32.70
2018-09-06T10:51:52.904Z,41.90
2018-09-06T10:54:20.974Z,35.97
2018-09-06T10:59:48.822Z,37.77
2018-09-06T11:02:17.795Z,44.87
2018-09-06T11:04:45.566Z,44.93
2018-09-06T11:07:13.403Z,52.87
2018-09-06T11:09:41.254Z,49.10
2018-09-06T11:12:08.931Z,37.73
2018-09-06T11:14:36.972Z,44.93
2018-09-06T11:17:11.309Z,44.27
2018-09-06T11:19:39.064Z,37.73
2018-09-06T11:22:09.716Z,37.93
2018-09-06T11:24:38.219Z,45.60
2018-09-06T11:27:07.783Z,34.10
2018-09-06T11:29:35.533Z,41.27
2018-09-06T11:32:08.869Z,32.80
2018-09-06T11:34:37.708Z,38.00
2018-09-06T11:37:05.830Z,36.27
2018-09-06T11:39:33.656Z,44.63
2018-09-06T11:42:01.321Z,35.07
2018-09-06T11:44:30.060Z,33.33
2018-09-06T11:46:57.701Z,35.07
2018-09-06T11:49:26.119Z,37.33
2018-09-06T11:51:54.963Z,30.83
2018-09-06T11:54:23.195Z,35.30
2018-09-06T11:56:50.916Z,29.57
2018-09-06T11:59:18.658Z,14.10
2018-09-06T12:01:47.163Z,12.10
2018-09-06T12:04:16.041Z,10.77
2018-09-06T12:06:47.338Z,14.03
2018-09-06T12:09:15.364Z,12.57
2018-09-06T12:11:44.074Z,10.90
2018-09-06T12:14:12.467Z,10.27
2018-09-06T12:16:40.501Z,14.73
2018-09-06T12:19:12.035Z,16.30
2018-09-06T12:21:40.548Z,13.30
2018-09-06T12:24:11.456Z,14.70
2018-09-06T12:26:40.827Z,17.73
2018-09-06T12:29:09.075Z,13.77
2018-09-06T12:31:37.984Z,12.13
2018-09-06T12:34:06.228Z,14.30
2018-09-06T12:36:35.274Z,16.03
2018-09-06T12:39:04.507Z,10.57
2018-09-06T12:41:32.294Z,8.00
2018-09-06T12:44:03.426Z,11.37
2018-09-06T12:46:32.650Z,10.30
2018-09-06T12:49:08.655Z,9.03
2018-09-06T12:51:37.342Z,9.03
2018-09-06T12:54:09.804Z,10.30
2018-09-06T12:56:44.378Z,18.60
2018-09-06T12:59:12.517Z,11.63
2018-09-06T13:01:47.081Z,12.27
2018-09-06T13:04:22.589Z,9.70
2018-09-06T13:06:52.398Z,8.70
2018-09-06T13:09:21.653Z,9.73
2018-09-06T13:11:51.205Z,8.20
2018-09-06T13:14:19.269Z,9.37
2018-09-06T13:16:54.443Z,8.53
2018-09-06T13:19:23.642Z,6.80
2018-09-06T13:21:51.477Z,9.83
2018-09-06T13:24:20.861Z,8.40
2018-09-06T13:26:48.663Z,9.50
2018-09-06T13:29:19.563Z,6.60
2018-09-06T13:31:47.777Z,8.70
2018-09-06T13:40:18.251Z,7.50
2018-09-06T13:42:47.308Z,13.70
2018-09-06T13:45:16.174Z,8.30
2018-09-06T13:47:47.334Z,8.90
2018-09-06T13:50:15.187Z,16.30
2018-09-06T13:52:42.831Z,13.73
2018-09-06T13:55:10.903Z,14.50
2018-09-06T13:57:39.697Z,9.63
2018-09-06T14:00:07.637Z,8.87
2018-09-06T14:02:35.301Z,13.30
2018-09-06T14:05:03.141Z,8.33
2018-09-06T14:07:32.585Z,9.83
2018-09-06T14:10:00.485Z,10.07
2018-09-06T14:15:19.663Z,10.67
2018-09-06T14:17:49.028Z,12.20
2018-09-06T14:20:16.926Z,10.90
2018-09-06T14:22:53.921Z,12.17
2018-09-06T14:25:21.987Z,13.03
2018-09-06T14:27:51.776Z,16.03
2018-09-06T14:30:19.550Z,13.23
2018-09-06T14:32:47.207Z,17.20
2018-09-06T14:35:16.045Z,18.70
2018-09-06T14:37:44.277Z,15.03
2018-09-06T14:40:12.165Z,12.67
2018-09-06T14:42:39.935Z,20.97
2018-09-06T14:45:07.940Z,13.37
2018-09-06T14:47:39.487Z,27.20
2018-09-06T14:50:09.229Z,14.43
2018-09-06T14:55:39.994Z,18.77
2018-09-06T14:58:08.780Z,22.03
2018-09-06T15:00:37.646Z,15.00
2018-09-06T15:03:07.839Z,17.77
2018-09-06T15:05:36.718Z,13.10
2018-09-06T15:08:05.124Z,20.20
2018-09-06T15:10:34.279Z,15.50
2018-09-06T15:13:06.914Z,18.63
2018-09-06T15:15:50.149Z,13.63
2018-09-06T15:18:18.454Z,16.30
2018-09-06T15:20:51.726Z,15.70
2018-09-06T15:23:19.456Z,14.13
2018-09-06T15:25:47.148Z,17.47
2018-09-06T15:28:15.671Z,18.17
2018-09-06T15:30:43.511Z,16.53
2018-09-06T15:35:47.635Z,21.33
2018-09-06T15:38:15.619Z,13.90
2018-09-06T15:40:43.725Z,16.03
2018-09-06T15:43:19.847Z,18.43
2018-09-06T15:45:55.722Z,24.27
2018-09-06T15:48:24.608Z,21.33
2018-09-06T15:50:52.994Z,19.27
2018-09-06T15:53:22.612Z,18.07
2018-09-06T15:55:51.418Z,26.53
2018-09-06T15:58:20.935Z,18.83
2018-09-06T16:00:48.525Z,31.60
2018-09-06T16:03:17.008Z,29.73
2018-09-06T16:05:44.793Z,41.53
2018-09-06T16:08:12.564Z,22.37
2018-09-06T16:10:40.236Z,23.03
2018-09-06T16:13:09.241Z,31.47
2018-09-06T16:15:37.984Z,40.27
2018-09-06T16:18:05.898Z,19.47
2018-09-06T16:20:33.661Z,28.73
2018-09-06T16:23:01.508Z,25.90
2018-09-06T16:25:31.798Z,26.70
2018-09-06T16:28:00.491Z,23.23
2018-09-06T16:30:28.325Z,31.73
2018-09-06T16:32:56.190Z,23.37
2018-09-06T16:35:30.239Z,18.80
2018-09-06T16:37:58.132Z,20.10
2018-09-06T16:40:25.899Z,22.10
2018-09-06T16:42:53.962Z,53.57
2018-09-06T16:45:21.676Z,33.97
2018-09-06T16:47:49.785Z,27.17
2018-09-06T16:50:17.571Z,28.33
2018-09-06T16:52:45.385Z,23.87
2018-09-06T16:55:21.229Z,23.27
2018-09-06T16:57:49.770Z,29.33
2018-09-06T17:00:24.029Z,27.20
2018-09-06T17:02:51.974Z,23.67
2018-09-06T17:05:23.707Z,20.70
2018-09-06T17:07:51.695Z,21.33
2018-09-06T17:10:20.551Z,22.57
2018-09-06T17:12:48.320Z,23.80
2018-09-06T17:15:16.058Z,25.60
2018-09-06T17:17:43.878Z,24.17
2018-09-06T17:20:11.585Z,28.30
2018-09-06T17:22:39.293Z,27.10
2018-09-06T17:25:07.063Z,21.70
2018-09-06T17:27:34.924Z,24.03
2018-09-06T17:30:02.631Z,21.03
2018-09-06T17:32:31.252Z,26.83
2018-09-06T17:34:58.879Z,23.70
2018-09-06T17:37:26.598Z,24.53
2018-09-06T17:39:54.234Z,22.83
2018-09-06T17:42:24.484Z,18.77
2018-09-06T17:44:53.308Z,23.03
2018-09-06T17:47:21.195Z,21.00
2018-09-06T17:49:49.790Z,24.60
2018-09-06T17:52:17.490Z,24.00
2018-09-06T17:54:45.975Z,21.97
2018-09-06T17:57:14.299Z,19.60
2018-09-06T17:59:42.010Z,23.83
2018-09-06T18:02:10.861Z,18.93
2018-09-06T18:04:39.193Z,21.80
2018-09-06T18:07:07.852Z,17.27
2018-09-06T18:09:36.600Z,20.03
2018-09-06T18:12:04.495Z,23.50
2018-09-06T18:14:32.253Z,18.80
2018-09-06T18:17:00.069Z,17.53
2018-09-06T18:19:27.862Z,23.90
2018-09-06T18:21:55.622Z,17.97
2018-09-06T18:24:23.310Z,17.70
2018-09-06T18:26:51.192Z,16.60
2018-09-06T18:29:18.907Z,18.43
2018-09-06T18:31:48.730Z,19.97
2018-09-06T18:34:16.584Z,17.50
2018-09-06T18:36:45.888Z,22.40
2018-09-06T18:39:13.590Z,20.70
2018-09-06T18:41:41.376Z,22.70
2018-09-06T18:44:09.096Z,21.57
2018-09-06T18:46:36.941Z,19.03
2018-09-06T18:49:06.534Z,17.17
2018-09-06T18:51:34.287Z,20.43
2018-09-06T18:54:02.588Z,17.33
2018-09-06T18:56:30.292Z,19.13
2018-09-06T18:58:58.836Z,18.60
2018-09-06T19:01:26.531Z,21.60
2018-09-06T19:03:55.440Z,19.90
2018-09-06T19:06:29.881Z,21.30
2018-09-06T19:08:57.673Z,18.03
2018-09-06T19:11:26.846Z,25.47
2018-09-06T19:16:31.825Z,17.93
2018-09-06T19:18:59.845Z,18.13
2018-09-06T19:21:28.303Z,21.73
2018-09-06T19:23:56.005Z,26.40
2018-09-06T19:26:23.700Z,19.37
2018-09-06T19:28:52.241Z,28.03
2018-09-06T19:31:20.200Z,18.00
2018-09-06T19:33:48.223Z,25.37
2018-09-06T19:36:16.788Z,16.97
2018-09-06T19:38:44.471Z,21.80
2018-09-06T19:41:12.102Z,17.50
2018-09-06T19:43:40.183Z,16.80
2018-09-06T19:46:07.907Z,26.27
2018-09-06T19:48:35.775Z,21.47
2018-09-06T19:51:03.659Z,22.83
2018-09-06T19:53:31.328Z,19.90
2018-09-06T19:55:59.331Z,18.20
2018-09-06T19:58:27.084Z,24.03
2018-09-06T20:00:55.074Z,21.33
2018-09-06T20:03:23.023Z,19.43
2018-09-06T20:05:50.807Z,24.60
2018-09-06T20:08:18.539Z,24.50
2018-09-06T20:10:46.185Z,23.40
2018-09-06T20:13:14.286Z,24.77
2018-09-06T20:15:45.397Z,25.40
2018-09-06T20:18:13.465Z,24.73
2018-09-06T20:20:41.627Z,21.93
2018-09-06T20:23:09.978Z,20.47
2018-09-06T20:25:38.171Z,26.60
2018-09-06T20:28:06.603Z,23.53
2018-09-06T20:30:34.958Z,21.07
2018-09-06T20:33:03.041Z,27.00
2018-09-06T20:35:31.385Z,28.47
2018-09-06T20:37:59.435Z,25.17
2018-09-06T20:40:36.118Z,26.30
2018-09-06T20:43:04.313Z,26.13
2018-09-06T20:45:32.371Z,25.57
2018-09-06T20:48:00.393Z,32.07
2018-09-06T20:50:28.697Z,24.67
2018-09-06T20:52:57.149Z,25.40
2018-09-06T20:55:26.307Z,34.73
2018-09-06T20:57:54.461Z,28.40
2018-09-06T21:00:22.692Z,34.37
2018-09-06T21:02:51.253Z,36.93
2018-09-06T21:05:21.636Z,32.10
2018-09-06T21:07:49.792Z,35.10
2018-09-06T21:10:18.178Z,33.53
2018-09-06T21:12:47.240Z,37.20
2018-09-06T21:15:15.291Z,35.00
2018-09-06T21:17:46.103Z,39.67
2018-09-06T21:20:14.609Z,39.67
2018-09-06T21:22:42.670Z,37.93
2018-09-06T21:25:10.871Z,36.30
2018-09-06T21:27:38.981Z,35.80
2018-09-06T21:30:07.377Z,32.70
2018-09-06T21:32:35.542Z,40.40
2018-09-06T21:35:04.152Z,32.57
2018-09-06T21:37:33.053Z,32.87
2018-09-06T21:40:03.729Z,37.77
2018-09-06T21:42:32.866Z,35.13
2018-09-06T21:45:04.311Z,37.07
2018-09-06T21:47:33.075Z,33.27
2018-09-06T21:50:01.150Z,37.73
2018-09-06T21:52:29.607Z,34.13
2018-09-06T21:54:58.060Z,39.00
2018-09-06T21:57:26.856Z,32.10
2018-09-06T21:59:58.589Z,31.77
2018-09-06T22:04:41.963Z,32.03
2018-09-06T22:07:10.136Z,32.47
2018-09-06T22:09:38.773Z,31.33
2018-09-06T22:12:26.865Z,34.83
2018-09-06T22:14:58.064Z,37.73
2018-09-06T22:17:31.977Z,33.13
2018-09-06T22:19:59.888Z,36.77
2018-09-06T22:22:27.629Z,40.27
2018-09-06T22:25:39.764Z,38.30
2018-09-06T22:28:07.810Z,39.97
2018-09-06T22:30:35.559Z,35.70
2018-09-06T22:33:03.377Z,35.67
2018-09-06T22:35:31.092Z,38.97
2018-09-06T22:38:02.353Z,32.40
2018-09-06T22:43:33.318Z,36.33
2018-09-06T22:46:01.645Z,38.40
2018-09-06T22:48:29.562Z,45.63
2018-09-06T22:50:57.529Z,36.60
2018-09-06T22:53:25.152Z,44.70
2018-09-06T22:56:00.992Z,41.77
2018-09-06T22:58:35.842Z,41.83
2018-09-06T23:01:07.219Z,46.50
2018-09-06T23:03:39.538Z,47.70
2018-09-06T23:06:16.958Z,44.40
2018-09-06T23:08:44.967Z,49.57
2018-09-06T23:11:12.857Z,48.53
2018-09-06T23:16:44.279Z,48.33
2018-09-06T23:19:11.959Z,48.17
2018-09-06T23:21:48.560Z,45.00
2018-09-06T23:24:16.319Z,55.20
2018-09-06T23:26:45.436Z,55.43
2018-09-06T23:29:33.249Z,55.60
2018-09-06T23:32:00.985Z,46.33
2018-09-06T23:37:34.860Z,48.30
2018-09-06T23:40:02.611Z,50.97
2018-09-06T23:42:30.411Z,57.17
2018-09-06T23:45:24.177Z,57.83
2018-09-06T23:47:52.076Z,51.50
2018-09-06T23:50:23.484Z,51.30
2018-09-06T23:52:51.476Z,58.40
2018-09-06T23:55:19.179Z,51.13
2018-09-06T23:57:46.848Z,60.50
